createdAt,value
2019-02-15T00:02:12.563Z,101462.00
2019-02-15T00:04:43.030Z,101459.00
2019-02-15T00:07:13.530Z,101455.00
2019-02-15T00:09:43.923Z,101460.00
2019-02-15T00:12:14.373Z,101457.00
2019-02-15T00:14:49.049Z,101451.00
2019-02-15T00:17:37.035Z,101459.00
2019-02-15T00:20:12.497Z,101457.00
2019-02-15T00:22:42.928Z,101456.00
2019-02-15T00:25:13.350Z,101450.00
2019-02-15T00:27:43.810Z,101444.00
2019-02-15T00:30:14.250Z,101444.00
2019-02-15T00:32:44.701Z,101454.00
2019-02-15T00:35:15.101Z,101453.00
2019-02-15T00:37:45.541Z,101455.00
2019-02-15T00:40:15.943Z,101452.00
2019-02-15T00:42:46.366Z,101458.00
2019-02-15T00:45:20.032Z,101454.00
2019-02-15T00:48:00.867Z,101450.00
2019-02-15T00:50:44.004Z,101457.00
2019-02-15T00:53:30.311Z,101448.00
2019-02-15T00:56:09.225Z,101450.00
2019-02-15T00:58:55.343Z,101447.00
2019-02-15T01:01:42.238Z,101448.00
2019-02-15T01:04:22.501Z,101444.00
2019-02-15T01:07:24.212Z,101438.00
2019-02-15T01:10:08.760Z,101440.00
2019-02-15T01:12:45.664Z,101438.00
2019-02-15T01:15:16.091Z,101442.00
2019-02-15T01:17:46.538Z,101439.00
2019-02-15T01:20:16.961Z,101429.00
2019-02-15T01:22:47.440Z,101431.00
2019-02-15T01:25:17.848Z,101439.00
2019-02-15T01:28:07.252Z,101429.00
2019-02-15T01:30:55.435Z,101428.00
2019-02-15T01:33:38.436Z,101428.00
2019-02-15T01:36:29.203Z,101433.00
2019-02-15T01:39:17.337Z,101428.00
2019-02-15T01:42:06.706Z,101435.00
2019-02-15T01:44:58.800Z,101423.00
2019-02-15T01:47:36.554Z,101437.00
2019-02-15T01:50:07.211Z,101427.00
2019-02-15T01:52:37.622Z,101433.00
2019-02-15T01:55:08.067Z,101433.00
2019-02-15T01:57:38.496Z,101430.00
2019-02-15T02:00:12.530Z,101435.00
2019-02-15T02:02:42.981Z,101431.00
2019-02-15T02:05:13.477Z,101435.00
2019-02-15T02:07:43.887Z,101424.00
2019-02-15T02:10:14.282Z,101426.00
2019-02-15T02:12:44.729Z,101418.00
2019-02-15T02:15:15.130Z,101429.00
2019-02-15T02:17:45.539Z,101432.00
2019-02-15T02:20:15.931Z,101430.00
2019-02-15T02:22:46.367Z,101418.00
2019-02-15T02:25:16.801Z,101429.00
2019-02-15T02:27:47.264Z,101421.00
2019-02-15T02:30:17.717Z,101425.00
2019-02-15T02:32:48.149Z,101423.00
2019-02-15T02:35:37.661Z,101427.00
2019-02-15T02:38:08.124Z,101425.00
2019-02-15T02:40:38.535Z,101419.00
2019-02-15T02:55:37.652Z,101417.00
2019-02-15T02:58:08.082Z,101425.00
2019-02-15T03:00:38.497Z,101419.00
2019-02-15T03:03:08.929Z,101426.00
2019-02-15T03:05:39.339Z,101420.00
2019-02-15T03:08:09.774Z,101421.00
2019-02-15T03:10:40.175Z,101422.00
2019-02-15T03:13:11.725Z,101415.00
2019-02-15T03:15:42.230Z,101422.00
2019-02-15T03:18:12.657Z,101423.00
2019-02-15T03:20:43.089Z,101417.00
2019-02-15T03:23:13.530Z,101419.00
2019-02-15T03:25:43.996Z,101408.00
2019-02-15T03:28:14.421Z,101410.00
2019-02-15T03:30:44.868Z,101415.00
2019-02-15T03:33:15.299Z,101412.00
2019-02-15T03:36:01.009Z,101415.00
2019-02-15T03:38:39.842Z,101420.00
2019-02-15T03:41:26.250Z,101416.00
2019-02-15T03:43:57.066Z,101412.00
2019-02-15T03:46:27.481Z,101407.00
2019-02-15T03:48:57.896Z,101408.00
2019-02-15T03:51:28.301Z,101409.00
2019-02-15T03:53:58.712Z,101407.00
2019-02-15T03:56:29.232Z,101423.00
2019-02-15T03:58:59.718Z,101406.00
2019-02-15T04:01:30.195Z,101410.00
2019-02-15T04:04:00.650Z,101417.00
2019-02-15T04:06:31.035Z,101417.00
2019-02-15T04:09:01.460Z,101416.00
2019-02-15T04:11:31.887Z,101410.00
2019-02-15T04:14:02.326Z,101414.00
2019-02-15T04:16:32.747Z,101405.00
2019-02-15T04:19:03.198Z,101407.00
2019-02-15T04:21:33.605Z,101407.00
2019-02-15T04:24:04.065Z,101405.00
2019-02-15T04:26:34.503Z,101399.00
2019-02-15T04:29:04.930Z,101400.00
2019-02-15T04:31:35.338Z,101400.00
2019-02-15T04:34:05.749Z,101396.00
2019-02-15T04:36:36.222Z,101397.00
2019-02-15T04:39:07.586Z,101395.00
2019-02-15T04:41:37.992Z,101389.00
2019-02-15T04:44:08.521Z,101394.00
2019-02-15T04:46:38.927Z,101387.00
2019-02-15T04:49:09.354Z,101392.00
2019-02-15T04:51:39.785Z,101390.00
2019-02-15T04:54:10.212Z,101390.00
2019-02-15T04:56:40.616Z,101390.00
2019-02-15T04:59:11.058Z,101392.00
2019-02-15T05:01:41.458Z,101386.00
2019-02-15T05:04:11.902Z,101387.00
2019-02-15T05:06:42.306Z,101388.00
2019-02-15T05:09:12.764Z,101395.00
2019-02-15T05:11:43.221Z,101390.00
2019-02-15T05:14:13.652Z,101388.00
2019-02-15T05:16:44.062Z,101386.00
2019-02-15T05:19:14.529Z,101384.00
2019-02-15T05:21:44.944Z,101383.00
2019-02-15T05:24:15.388Z,101394.00
2019-02-15T05:26:45.797Z,101399.00
2019-02-15T05:29:16.240Z,101392.00
2019-02-15T05:31:46.718Z,101400.00
2019-02-15T05:34:17.149Z,101404.00
2019-02-15T05:36:47.566Z,101399.00
2019-02-15T05:39:17.996Z,101392.00
2019-02-15T05:41:48.445Z,101388.00
2019-02-15T05:44:18.981Z,101394.00
2019-02-15T05:46:49.387Z,101395.00
2019-02-15T05:49:19.811Z,101399.00
2019-02-15T05:51:50.389Z,101394.00
2019-02-15T05:54:20.973Z,101402.00
2019-02-15T05:56:51.421Z,101405.00
2019-02-15T05:59:21.860Z,101409.00
2019-02-15T06:01:52.320Z,101406.00
2019-02-15T06:04:22.785Z,101411.00
2019-02-15T06:06:53.327Z,101413.00
2019-02-15T06:09:23.745Z,101417.00
2019-02-15T06:11:54.180Z,101408.00
2019-02-15T06:14:24.586Z,101409.00
2019-02-15T06:16:55.021Z,101410.00
2019-02-15T06:19:25.467Z,101414.00
2019-02-15T06:21:55.865Z,101412.00
2019-02-15T06:24:26.451Z,101415.00
2019-02-15T06:26:56.873Z,101411.00
2019-02-15T06:29:27.284Z,101409.00
2019-02-15T06:31:57.730Z,101418.00
2019-02-15T06:34:28.141Z,101413.00
2019-02-15T06:36:58.575Z,101421.00
2019-02-15T06:39:28.991Z,101417.00
2019-02-15T06:41:59.457Z,101417.00
2019-02-15T06:44:29.854Z,101411.00
2019-02-15T06:47:00.294Z,101416.00
2019-02-15T06:49:30.763Z,101409.00
2019-02-15T06:52:01.202Z,101418.00
2019-02-15T06:54:31.592Z,101414.00
2019-02-15T06:57:02.042Z,101414.00
2019-02-15T06:59:51.480Z,101409.00
2019-02-15T07:02:43.927Z,101411.00
2019-02-15T07:05:31.328Z,101402.00
2019-02-15T07:08:01.740Z,101410.00
2019-02-15T07:10:32.178Z,101402.00
2019-02-15T07:13:02.581Z,101406.00
2019-02-15T07:15:34.025Z,101416.00
2019-02-15T07:18:04.492Z,101415.00
2019-02-15T07:20:34.931Z,101420.00
2019-02-15T07:23:05.341Z,101424.00
2019-02-15T07:25:35.762Z,101428.00
2019-02-15T07:28:06.237Z,101422.00
2019-02-15T07:30:36.665Z,101412.00
2019-02-15T07:33:07.086Z,101421.00
2019-02-15T07:35:37.518Z,101424.00
2019-02-15T07:38:07.920Z,101424.00
2019-02-15T07:40:38.387Z,101426.00
2019-02-15T07:43:08.791Z,101429.00
2019-02-15T07:45:42.830Z,101428.00
2019-02-15T07:48:11.378Z,101438.00
2019-02-15T07:50:41.821Z,101433.00
2019-02-15T07:53:12.224Z,101437.00
2019-02-15T07:55:42.662Z,101441.00
2019-02-15T07:58:13.091Z,101446.00
2019-02-15T08:00:43.527Z,101445.00
2019-02-15T08:03:14.044Z,101440.00
2019-02-15T08:05:44.481Z,101441.00
2019-02-15T08:08:14.910Z,101436.00
2019-02-15T08:10:45.369Z,101432.00
2019-02-15T08:13:15.778Z,101438.00
2019-02-15T08:15:52.101Z,101434.00
2019-02-15T08:18:18.400Z,101430.00
2019-02-15T08:20:48.859Z,101428.00
2019-02-15T08:23:19.289Z,101440.00
2019-02-15T08:25:49.746Z,101440.00
2019-02-15T08:28:20.247Z,101440.00
2019-02-15T08:30:50.878Z,101434.00
2019-02-15T08:33:21.286Z,101433.00
2019-02-15T08:35:51.693Z,101436.00
2019-02-15T08:38:22.148Z,101439.00
2019-02-15T08:40:52.640Z,101440.00
2019-02-15T08:43:23.092Z,101448.00
2019-02-15T08:46:00.609Z,101443.00
2019-02-15T08:48:25.679Z,101446.00
2019-02-15T08:50:56.093Z,101448.00
2019-02-15T08:53:26.541Z,101447.00
2019-02-15T08:55:56.957Z,101444.00
2019-02-15T08:58:27.428Z,101453.00
2019-02-15T09:00:57.956Z,101446.00
2019-02-15T09:03:28.430Z,101453.00
2019-02-15T09:05:58.843Z,101442.00
2019-02-15T09:08:30.054Z,101443.00
2019-02-15T09:11:02.338Z,101442.00
2019-02-15T09:13:32.986Z,101449.00
2019-02-15T09:16:10.087Z,101436.00
2019-02-15T09:18:35.544Z,101442.00
2019-02-15T09:21:05.978Z,101439.00
2019-02-15T09:23:36.447Z,101430.00
2019-02-15T09:26:06.872Z,101427.00
2019-02-15T09:28:59.471Z,101436.00
2019-02-15T09:31:29.870Z,101433.00
2019-02-15T09:34:00.321Z,101425.00
2019-02-15T09:36:30.780Z,101428.00
2019-02-15T09:39:01.193Z,101428.00
2019-02-15T09:41:31.642Z,101427.00
2019-02-15T09:44:02.095Z,101433.00
2019-02-15T09:46:32.527Z,101421.00
2019-02-15T09:49:02.969Z,101423.00
2019-02-15T09:51:33.397Z,101420.00
2019-02-15T09:54:03.837Z,101418.00
2019-02-15T09:56:34.252Z,101418.00
2019-02-15T09:59:04.681Z,101413.00
2019-02-15T10:01:35.137Z,101413.00
2019-02-15T10:04:05.595Z,101418.00
2019-02-15T10:06:36.117Z,101412.00
2019-02-15T10:09:08.544Z,101416.00
2019-02-15T10:11:39.008Z,101409.00
2019-02-15T10:14:09.465Z,101412.00
2019-02-15T10:16:39.966Z,101409.00
2019-02-15T10:19:10.395Z,101411.00
2019-02-15T10:21:40.862Z,101405.00
2019-02-15T10:24:11.268Z,101402.00
2019-02-15T10:26:41.711Z,101410.00
2019-02-15T10:29:12.181Z,101410.00
2019-02-15T10:31:42.683Z,101413.00
2019-02-15T10:34:13.135Z,101416.00
2019-02-15T10:36:43.550Z,101419.00
2019-02-15T10:39:14.000Z,101411.00
2019-02-15T10:41:44.554Z,101415.00
2019-02-15T10:44:15.025Z,101407.00
2019-02-15T10:46:45.519Z,101398.00
2019-02-15T10:49:15.959Z,101395.00
2019-02-15T10:51:46.688Z,101403.00
2019-02-15T10:54:17.114Z,101396.00
2019-02-15T10:56:48.699Z,101396.00
2019-02-15T10:59:19.109Z,101407.00
2019-02-15T11:01:49.637Z,101396.00
2019-02-15T11:04:20.170Z,101389.00
2019-02-15T11:06:50.628Z,101394.00
2019-02-15T11:09:21.034Z,101392.00
2019-02-15T11:11:51.474Z,101385.00
2019-02-15T11:14:21.903Z,101389.00
2019-02-15T11:16:52.367Z,101385.00
2019-02-15T11:19:22.809Z,101383.00
2019-02-15T11:21:53.301Z,101373.00
2019-02-15T11:24:23.725Z,101385.00
2019-02-15T11:26:54.206Z,101378.00
2019-02-15T11:29:24.659Z,101377.00
2019-02-15T11:31:55.131Z,101382.00
2019-02-15T11:34:25.569Z,101382.00
2019-02-15T11:36:56.023Z,101382.00
2019-02-15T11:39:26.447Z,101379.00
2019-02-15T11:41:56.898Z,101371.00
2019-02-15T11:44:27.640Z,101375.00
2019-02-15T11:46:58.119Z,101376.00
2019-02-15T11:49:28.500Z,101368.00
2019-02-15T11:51:58.990Z,101368.00
2019-02-15T11:54:29.418Z,101364.00
2019-02-15T11:56:59.861Z,101359.00
2019-02-15T11:59:32.528Z,101364.00
2019-02-15T12:02:06.115Z,101359.00
2019-02-15T12:04:34.984Z,101348.00
2019-02-15T12:07:05.435Z,101356.00
2019-02-15T12:09:35.864Z,101344.00
2019-02-15T12:12:10.641Z,101350.00
2019-02-15T12:14:39.022Z,101360.00
2019-02-15T12:17:09.486Z,101347.00
2019-02-15T12:19:39.909Z,101350.00
2019-02-15T12:22:10.390Z,101344.00
2019-02-15T12:24:40.885Z,101328.00
2019-02-15T12:27:11.363Z,101332.00
2019-02-15T12:29:41.784Z,101335.00
2019-02-15T12:32:12.237Z,101326.00
2019-02-15T12:34:42.657Z,101327.00
2019-02-15T12:37:13.182Z,101324.00
2019-02-15T12:39:43.601Z,101322.00
2019-02-15T12:42:14.326Z,101317.00
2019-02-15T12:44:45.781Z,101324.00
2019-02-15T12:47:16.233Z,101311.00
2019-02-15T12:49:46.659Z,101310.00
2019-02-15T12:52:17.127Z,101311.00
2019-02-15T12:54:47.715Z,101306.00
2019-02-15T12:57:18.232Z,101304.00
2019-02-15T12:59:48.676Z,101304.00
2019-02-15T13:02:19.144Z,101304.00
2019-02-15T13:04:49.592Z,101301.00
2019-02-15T13:07:20.084Z,101301.00
2019-02-15T13:09:51.970Z,101287.00
2019-02-15T13:12:22.469Z,101287.00
2019-02-15T13:14:52.883Z,101285.00
2019-02-15T13:17:24.994Z,101287.00
2019-02-15T13:19:55.766Z,101292.00
2019-02-15T13:22:26.212Z,101291.00
2019-02-15T13:24:56.762Z,101285.00
2019-02-15T13:27:27.215Z,101280.00
2019-02-15T13:29:57.820Z,101281.00
2019-02-15T13:32:28.308Z,101282.00
2019-02-15T13:34:58.742Z,101271.00
2019-02-15T13:37:29.181Z,101272.00
2019-02-15T13:39:59.637Z,101268.00
2019-02-15T13:42:30.131Z,101268.00
2019-02-15T13:45:01.134Z,101270.00
2019-02-15T13:47:34.597Z,101260.00
2019-02-15T13:50:03.865Z,101254.00
2019-02-15T13:52:34.389Z,101253.00
2019-02-15T13:55:05.091Z,101260.00
2019-02-15T13:57:35.528Z,101256.00
2019-02-15T14:00:08.142Z,101259.00
2019-02-15T14:02:38.639Z,101255.00
2019-02-15T14:05:10.155Z,101256.00
2019-02-15T14:07:40.719Z,101253.00
2019-02-15T14:10:13.089Z,101260.00
2019-02-15T14:12:43.512Z,101257.00
2019-02-15T14:15:14.505Z,101255.00
2019-02-15T14:17:48.029Z,101249.00
2019-02-15T14:20:17.272Z,101245.00
2019-02-15T14:22:47.710Z,101243.00
2019-02-15T14:25:18.180Z,101236.00
2019-02-15T14:27:48.603Z,101247.00
2019-02-15T14:30:19.099Z,101238.00
2019-02-15T14:32:49.536Z,101240.00
2019-02-15T14:35:20.203Z,101233.00
2019-02-15T14:37:50.660Z,101230.00
2019-02-15T14:40:21.119Z,101230.00
2019-02-15T14:42:51.658Z,101226.00
2019-02-15T14:45:22.135Z,101224.00
2019-02-15T14:47:55.218Z,101212.00
2019-02-15T14:50:24.823Z,101218.00
2019-02-15T14:52:55.270Z,101211.00
2019-02-15T14:55:26.809Z,101210.00
2019-02-15T14:57:57.276Z,101209.00
2019-02-15T15:00:27.677Z,101203.00
2019-02-15T15:03:00.132Z,101210.00
2019-02-15T15:05:30.631Z,101201.00
2019-02-15T15:08:01.023Z,101191.00
2019-02-15T15:10:31.482Z,101187.00
2019-02-15T15:13:01.893Z,101196.00
2019-02-15T15:15:32.363Z,101194.00
2019-02-15T15:18:12.700Z,101185.00
2019-02-15T15:20:35.067Z,101181.00
2019-02-15T15:23:05.560Z,101184.00
2019-02-15T15:25:36.016Z,101179.00
2019-02-15T15:28:06.430Z,101169.00
2019-02-15T15:30:36.985Z,101163.00
2019-02-15T15:33:07.403Z,101160.00
2019-02-15T15:35:37.863Z,101163.00
2019-02-15T15:38:08.274Z,101158.00
2019-02-15T15:40:38.884Z,101158.00
2019-02-15T15:43:09.266Z,101161.00
2019-02-15T15:45:39.717Z,101158.00
2019-02-15T15:48:10.165Z,101157.00
2019-02-15T15:50:40.627Z,101151.00
2019-02-15T15:53:11.052Z,101152.00
2019-02-15T15:55:41.513Z,101156.00
2019-02-15T15:58:11.956Z,101157.00
2019-02-15T16:00:42.432Z,101155.00
2019-02-15T16:03:12.850Z,101153.00
2019-02-15T16:05:43.291Z,101155.00
2019-02-15T16:08:13.747Z,101159.00
2019-02-15T16:10:44.385Z,101155.00
2019-02-15T16:13:14.785Z,101153.00
2019-02-15T16:15:45.326Z,101152.00
2019-02-15T16:18:15.795Z,101151.00
2019-02-15T16:20:46.230Z,101156.00
2019-02-15T16:23:16.693Z,101154.00
2019-02-15T16:25:47.143Z,101155.00
2019-02-15T16:28:17.542Z,101150.00
2019-02-15T16:30:48.065Z,101156.00
2019-02-15T16:33:18.510Z,101149.00
2019-02-15T16:35:48.956Z,101156.00
2019-02-15T16:38:19.416Z,101159.00
2019-02-15T16:40:49.974Z,101161.00
2019-02-15T16:43:20.436Z,101164.00
2019-02-15T16:45:50.945Z,101164.00
2019-02-15T16:48:21.560Z,101167.00
2019-02-15T16:50:52.001Z,101165.00
2019-02-15T16:53:22.518Z,101168.00
2019-02-15T16:55:53.165Z,101169.00
2019-02-15T16:58:23.605Z,101171.00
2019-02-15T17:00:54.044Z,101175.00
2019-02-15T17:03:24.493Z,101165.00
2019-02-15T17:05:54.924Z,101168.00
2019-02-15T17:08:25.378Z,101167.00
2019-02-15T17:10:55.824Z,101166.00
2019-02-15T17:13:28.076Z,101169.00
2019-02-15T17:15:58.659Z,101168.00
2019-02-15T17:18:29.116Z,101166.00
2019-02-15T17:20:59.591Z,101167.00
2019-02-15T17:23:30.016Z,101168.00
2019-02-15T17:26:00.477Z,101165.00
2019-02-15T17:28:30.931Z,101153.00
2019-02-15T17:31:01.406Z,101164.00
2019-02-15T17:33:32.157Z,101162.00
2019-02-15T17:36:02.650Z,101167.00
2019-02-15T17:38:33.103Z,101160.00
2019-02-15T17:41:03.627Z,101158.00
2019-02-15T17:43:34.061Z,101164.00
2019-02-15T17:46:04.531Z,101156.00
2019-02-15T17:48:35.209Z,101157.00
2019-02-15T17:51:05.629Z,101149.00
2019-02-15T17:53:36.092Z,101148.00
2019-02-15T17:56:06.785Z,101152.00
2019-02-15T17:58:37.578Z,101151.00
2019-02-15T18:01:08.087Z,101157.00
2019-02-15T18:03:38.518Z,101147.00
2019-02-15T18:06:08.984Z,101151.00
2019-02-15T18:08:39.427Z,101150.00
2019-02-15T18:11:09.914Z,101153.00
2019-02-15T18:13:40.542Z,101153.00
2019-02-15T18:16:11.343Z,101158.00
2019-02-15T18:18:41.850Z,101147.00
2019-02-15T18:21:12.302Z,101145.00
2019-02-15T18:23:42.791Z,101149.00
2019-02-15T18:26:13.256Z,101150.00
2019-02-15T18:28:43.771Z,101141.00
2019-02-15T18:31:16.330Z,101145.00
2019-02-15T18:33:46.437Z,101140.00
2019-02-15T18:36:17.116Z,101139.00
2019-02-15T18:38:47.660Z,101142.00
2019-02-15T18:41:18.197Z,101149.00
2019-02-15T18:43:48.643Z,101150.00
2019-02-15T18:46:19.179Z,101141.00
2019-02-15T18:48:49.693Z,101142.00
2019-02-15T18:51:20.302Z,101130.00
2019-02-15T18:53:50.741Z,101131.00
2019-02-15T18:56:21.228Z,101132.00
2019-02-15T18:58:51.668Z,101131.00
2019-02-15T19:01:22.112Z,101134.00
2019-02-15T19:03:52.539Z,101130.00
2019-02-15T19:06:23.042Z,101135.00
2019-02-15T19:08:53.519Z,101126.00
2019-02-15T19:11:23.984Z,101127.00
2019-02-15T19:13:54.459Z,101136.00
2019-02-15T19:16:25.015Z,101130.00
2019-02-15T19:18:55.495Z,101124.00
2019-02-15T19:21:26.087Z,101130.00
2019-02-15T19:23:56.545Z,101121.00
2019-02-15T19:26:27.037Z,101121.00
2019-02-15T19:28:57.473Z,101119.00
2019-02-15T19:31:29.307Z,101119.00
2019-02-15T19:33:59.842Z,101122.00
2019-02-15T19:36:30.301Z,101120.00
2019-02-15T19:39:00.760Z,101124.00
2019-02-15T19:41:31.405Z,101118.00
2019-02-15T19:44:02.311Z,101118.00
2019-02-15T19:46:32.880Z,101125.00
2019-02-15T19:49:03.662Z,101121.00
2019-02-15T19:51:36.074Z,101121.00
2019-02-15T19:54:06.513Z,101123.00
2019-02-15T19:56:37.030Z,101127.00
2019-02-15T19:59:07.525Z,101123.00
2019-02-15T20:01:38.429Z,101129.00
2019-02-15T20:04:08.876Z,101122.00
2019-02-15T20:06:39.350Z,101111.00
2019-02-15T20:09:10.846Z,101120.00
2019-02-15T20:11:41.339Z,101104.00
2019-02-15T20:14:11.802Z,101111.00
2019-02-15T20:16:42.276Z,101111.00
2019-02-15T20:19:14.270Z,101108.00
2019-02-15T20:21:46.781Z,101102.00
2019-02-15T20:24:17.243Z,101107.00
2019-02-15T20:26:48.071Z,101103.00
2019-02-15T20:29:19.100Z,101102.00
2019-02-15T20:31:49.686Z,101102.00
2019-02-15T20:34:20.117Z,101105.00
2019-02-15T20:36:50.582Z,101095.00
2019-02-15T20:39:21.035Z,101089.00
2019-02-15T20:41:51.710Z,101093.00
2019-02-15T20:44:22.165Z,101095.00
2019-02-15T20:46:52.677Z,101087.00
2019-02-15T20:49:24.388Z,101094.00
2019-02-15T20:51:55.027Z,101093.00
2019-02-15T20:54:25.570Z,101086.00
2019-02-15T20:56:56.018Z,101081.00
2019-02-15T20:59:26.614Z,101073.00
2019-02-15T21:01:57.124Z,101077.00
2019-02-15T21:04:29.478Z,101079.00
2019-02-15T21:07:00.238Z,101074.00
2019-02-15T21:09:30.733Z,101067.00
2019-02-15T21:12:02.565Z,101063.00
2019-02-15T21:14:33.006Z,101054.00
2019-02-15T21:17:03.497Z,101052.00
2019-02-15T21:19:34.077Z,101056.00
2019-02-15T21:22:05.768Z,101049.00
2019-02-15T21:24:36.209Z,101055.00
2019-02-15T21:27:09.066Z,101056.00
2019-02-15T21:29:39.574Z,101047.00
2019-02-15T21:32:10.134Z,101046.00
2019-02-15T21:34:40.587Z,101036.00
2019-02-15T21:37:11.210Z,101044.00
2019-02-15T21:39:41.706Z,101045.00
2019-02-15T21:42:12.215Z,101038.00
2019-02-15T21:44:42.676Z,101044.00
2019-02-15T21:47:14.660Z,101036.00
2019-02-15T21:49:45.116Z,101028.00
2019-02-15T21:52:15.680Z,101029.00
2019-02-15T21:54:46.151Z,101036.00
2019-02-15T21:57:16.649Z,101034.00
2019-02-15T21:59:47.129Z,101029.00
2019-02-15T22:02:17.597Z,101033.00
2019-02-15T22:04:48.049Z,101043.00
2019-02-15T22:07:18.820Z,101030.00
2019-02-15T22:09:49.279Z,101026.00
2019-02-15T22:12:20.054Z,101028.00
2019-02-15T22:14:50.460Z,101027.00
2019-02-15T22:17:20.962Z,101025.00
2019-02-15T22:19:51.439Z,101031.00
2019-02-15T22:22:21.905Z,101031.00
2019-02-15T22:24:52.400Z,101034.00
2019-02-15T22:27:22.854Z,101026.00
2019-02-15T22:29:53.287Z,101025.00
2019-02-15T22:32:23.748Z,101017.00
2019-02-15T22:34:54.212Z,101020.00
2019-02-15T22:37:24.784Z,101021.00
2019-02-15T22:39:55.242Z,101017.00
2019-02-15T22:42:25.729Z,101021.00
2019-02-15T22:44:56.180Z,101012.00
2019-02-15T22:47:26.603Z,101020.00
2019-02-15T22:49:57.088Z,101007.00
2019-02-15T22:52:27.578Z,101006.00
2019-02-15T22:54:58.031Z,101008.00
2019-02-15T22:57:28.528Z,101017.00
2019-02-15T23:00:01.083Z,101013.00
2019-02-15T23:02:31.114Z,101011.00
2019-02-15T23:05:01.582Z,101006.00
2019-02-15T23:07:32.039Z,101011.00
2019-02-15T23:10:02.472Z,101010.00
2019-02-15T23:12:33.028Z,101011.00
2019-02-15T23:15:03.972Z,101007.00
2019-02-15T23:17:34.389Z,101007.00
2019-02-15T23:20:04.961Z,101010.00
2019-02-15T23:22:35.378Z,101005.00
2019-02-15T23:25:06.060Z,101015.00
2019-02-15T23:27:36.531Z,100997.00
2019-02-15T23:30:07.811Z,101004.00
2019-02-15T23:32:38.236Z,101003.00
2019-02-15T23:35:08.690Z,101002.00
2019-02-15T23:37:39.148Z,100992.00
2019-02-15T23:40:10.696Z,100995.00
2019-02-15T23:42:41.157Z,101000.00
2019-02-15T23:45:11.579Z,100981.00
2019-02-15T23:47:41.994Z,100989.00
2019-02-15T23:50:12.461Z,100984.00
2019-02-15T23:52:42.988Z,100985.00
2019-02-15T23:55:13.553Z,100991.00
2019-02-15T23:57:44.013Z,100985.00
